sensor_id;sensor_type;location;lat;lon;timestamp;pressure;altitude;pressure_sealevel;temperature;humidity
73338;BME280;61575;49.908;35.556;2022-11-15T00:03:16;100164.63;;;-0.30;74.25
73338;BME280;61575;49.908;35.556;2022-11-15T00:06:36;100162.06;;;-0.31;74.18
73338;BME280;61575;49.908;35.556;2022-11-15T00:09:56;100169.34;;;-0.37;73.50
73338;BME280;61575;49.908;35.556;2022-11-15T00:13:17;100173.94;;;-0.40;73.81
73338;BME280;61575;49.908;35.556;2022-11-15T00:16:37;100175.78;;;-0.42;74.23
73338;BME280;61575;49.908;35.556;2022-11-15T00:19:58;100166.25;;;-0.45;74.53
73338;BME280;61575;49.908;35.556;2022-11-15T00:23:19;100159.53;;;-0.50;74.11
73338;BME280;61575;49.908;35.556;2022-11-15T00:26:39;100155.09;;;-0.50;74.19
73338;BME280;61575;49.908;35.556;2022-11-15T00:29:59;100156.97;;;-0.52;74.04
73338;BME280;61575;49.908;35.556;2022-11-15T00:33:20;100162.47;;;-0.56;74.31
73338;BME280;61575;49.908;35.556;2022-11-15T00:36:40;100159.97;;;-0.59;74.99
73338;BME280;61575;49.908;35.556;2022-11-15T00:40:01;100154.78;;;-0.61;74.78
73338;BME280;61575;49.908;35.556;2022-11-15T00:43:21;100157.72;;;-0.67;75.00
73338;BME280;61575;49.908;35.556;2022-11-15T00:46:41;100161.44;;;-0.71;75.65
73338;BME280;61575;49.908;35.556;2022-11-15T00:50:02;100153.69;;;-0.74;75.72
73338;BME280;61575;49.908;35.556;2022-11-15T00:53:23;100157.25;;;-0.75;76.12
73338;BME280;61575;49.908;35.556;2022-11-15T00:56:43;100157.25;;;-0.75;75.56
73338;BME280;61575;49.908;35.556;2022-11-15T01:00:04;100141.31;;;-0.72;75.64
73338;BME280;61575;49.908;35.556;2022-11-15T01:03:25;100143.88;;;-0.71;75.39
73338;BME280;61575;49.908;35.556;2022-11-15T01:06:46;100148.44;;;-0.74;74.71
73338;BME280;61575;49.908;35.556;2022-11-15T01:10:06;100143.31;;;-0.77;74.50
73338;BME280;61575;49.908;35.556;2022-11-15T01:13:30;100133.81;;;-0.80;74.46
73338;BME280;61575;49.908;35.556;2022-11-15T01:16:50;100128.63;;;-0.81;74.18
73338;BME280;61575;49.908;35.556;2022-11-15T01:20:11;100135.59;;;-0.80;74.28
73338;BME280;61575;49.908;35.556;2022-11-15T01:23:32;100135.09;;;-0.88;74.84
73338;BME280;61575;49.908;35.556;2022-11-15T01:26:53;100135.56;;;-0.98;75.07
73338;BME280;61575;49.908;35.556;2022-11-15T01:30:14;100141.91;;;-1.02;75.90
73338;BME280;61575;49.908;35.556;2022-11-15T01:33:35;100140.03;;;-1.00;75.79
73338;BME280;61575;49.908;35.556;2022-11-15T01:36:58;100132.16;;;-1.00;75.77
73338;BME280;61575;49.908;35.556;2022-11-15T01:40:18;100137.41;;;-1.00;75.50
73338;BME280;61575;49.908;35.556;2022-11-15T01:43:39;100137.56;;;-1.03;75.23
73338;BME280;61575;49.908;35.556;2022-11-15T01:47:02;100135.16;;;-1.07;75.40
73338;BME280;61575;49.908;35.556;2022-11-15T01:50:24;100136.38;;;-1.14;76.27
73338;BME280;61575;49.908;35.556;2022-11-15T01:53:49;100138.00;;;-1.12;75.38
73338;BME280;61575;49.908;35.556;2022-11-15T01:57:13;100132.03;;;-1.15;75.03
73338;BME280;61575;49.908;35.556;2022-11-15T02:00:33;100136.47;;;-1.16;75.21
73338;BME280;61575;49.908;35.556;2022-11-15T02:03:59;100134.03;;;-1.20;75.19
73338;BME280;61575;49.908;35.556;2022-11-15T02:07:21;100133.19;;;-1.21;75.10
73338;BME280;61575;49.908;35.556;2022-11-15T02:10:42;100124.53;;;-1.23;75.37
73338;BME280;61575;49.908;35.556;2022-11-15T02:14:03;100126.16;;;-1.20;75.27
73338;BME280;61575;49.908;35.556;2022-11-15T02:21:14;100122.81;;;-1.24;74.94
73338;BME280;61575;49.908;35.556;2022-11-15T02:31:51;100132.22;;;-1.37;75.13
73338;BME280;61575;49.908;35.556;2022-11-15T02:35:42;100119.16;;;-1.39;75.13
73338;BME280;61575;49.908;35.556;2022-11-15T02:42:33;100125.41;;;-1.41;75.30
73338;BME280;61575;49.908;35.556;2022-11-15T02:47:06;100129.09;;;-1.45;75.75
73338;BME280;61575;49.908;35.556;2022-11-15T02:50:21;100129.25;;;-1.48;76.05
73338;BME280;61575;49.908;35.556;2022-11-15T02:53:43;100125.63;;;-1.46;75.50
73338;BME280;61575;49.908;35.556;2022-11-15T02:57:06;100130.94;;;-1.47;75.59
73338;BME280;61575;49.908;35.556;2022-11-15T03:00:34;100120.44;;;-1.47;75.52
73338;BME280;61575;49.908;35.556;2022-11-15T03:04:30;100126.97;;;-1.56;75.71
73338;BME280;61575;49.908;35.556;2022-11-15T03:08:22;100125.47;;;-1.61;76.24
73338;BME280;61575;49.908;35.556;2022-11-15T03:11:50;100119.31;;;-1.60;75.25
73338;BME280;61575;49.908;35.556;2022-11-15T03:15:26;100122.84;;;-1.61;75.66
73338;BME280;61575;49.908;35.556;2022-11-15T03:18:53;100131.75;;;-1.64;75.17
73338;BME280;61575;49.908;35.556;2022-11-15T03:22:20;100118.59;;;-1.64;75.83
73338;BME280;61575;49.908;35.556;2022-11-15T03:25:45;100118.75;;;-1.67;75.79
73338;BME280;61575;49.908;35.556;2022-11-15T03:29:17;100110.91;;;-1.69;75.98
73338;BME280;61575;49.908;35.556;2022-11-15T03:32:46;100105.66;;;-1.69;76.31
73338;BME280;61575;49.908;35.556;2022-11-15T03:36:07;100113.47;;;-1.67;76.21
73338;BME280;61575;49.908;35.556;2022-11-15T03:39:28;100111.84;;;-1.70;76.30
73338;BME280;61575;49.908;35.556;2022-11-15T03:46:17;100106.53;;;-1.68;76.82
73338;BME280;61575;49.908;35.556;2022-11-15T03:49:57;100106.53;;;-1.68;76.39
73338;BME280;61575;49.908;35.556;2022-11-15T03:53:18;100111.06;;;-1.72;76.21
73338;BME280;61575;49.908;35.556;2022-11-15T03:56:39;100107.50;;;-1.71;76.35
73338;BME280;61575;49.908;35.556;2022-11-15T04:00:00;100101.34;;;-1.70;76.71
73338;BME280;61575;49.908;35.556;2022-11-15T04:03:20;100095.16;;;-1.69;76.27
73338;BME280;61575;49.908;35.556;2022-11-15T04:06:41;100100.28;;;-1.66;76.20
73338;BME280;61575;49.908;35.556;2022-11-15T04:10:01;100089.75;;;-1.66;77.12
73338;BME280;61575;49.908;35.556;2022-11-15T04:13:25;100092.16;;;-1.61;77.37
73338;BME280;61575;49.908;35.556;2022-11-15T04:16:45;100105.94;;;-1.56;77.21
73338;BME280;61575;49.908;35.556;2022-11-15T04:20:09;100103.25;;;-1.54;77.02
73338;BME280;61575;49.908;35.556;2022-11-15T04:23:48;100104.31;;;-1.58;76.79
73338;BME280;61575;49.908;35.556;2022-11-15T04:27:27;100102.69;;;-1.61;76.47
73338;BME280;61575;49.908;35.556;2022-11-15T04:30:47;100098.28;;;-1.60;77.13
73338;BME280;61575;49.908;35.556;2022-11-15T04:34:08;100097.50;;;-1.63;76.52
73338;BME280;61575;49.908;35.556;2022-11-15T04:37:28;100096.16;;;-1.71;76.24
73338;BME280;61575;49.908;35.556;2022-11-15T04:40:48;100097.06;;;-1.72;76.38
73338;BME280;61575;49.908;35.556;2022-11-15T04:44:09;100099.63;;;-1.71;76.86
73338;BME280;61575;49.908;35.556;2022-11-15T04:47:29;100109.22;;;-1.70;76.34
73338;BME280;61575;49.908;35.556;2022-11-15T04:50:50;100102.25;;;-1.71;76.15
73338;BME280;61575;49.908;35.556;2022-11-15T04:54:10;100099.63;;;-1.71;76.35
73338;BME280;61575;49.908;35.556;2022-11-15T04:57:31;100103.19;;;-1.72;76.55
73338;BME280;61575;49.908;35.556;2022-11-15T05:00:51;100095.16;;;-1.69;76.52
73338;BME280;61575;49.908;35.556;2022-11-15T05:04:11;100098.50;;;-1.65;76.65
73338;BME280;61575;49.908;35.556;2022-11-15T05:07:40;100102.75;;;-1.63;76.56
73338;BME280;61575;49.908;35.556;2022-11-15T05:11:01;100103.69;;;-1.64;76.70
73338;BME280;61575;49.908;35.556;2022-11-15T05:14:21;100103.53;;;-1.60;76.20
73338;BME280;61575;49.908;35.556;2022-11-15T05:17:42;100101.81;;;-1.61;76.48
73338;BME280;61575;49.908;35.556;2022-11-15T05:21:04;100102.81;;;-1.64;76.19
73338;BME280;61575;49.908;35.556;2022-11-15T05:24:24;100106.44;;;-1.67;76.59
73338;BME280;61575;49.908;35.556;2022-11-15T05:27:44;100108.78;;;-1.60;76.60
73338;BME280;61575;49.908;35.556;2022-11-15T05:31:11;100111.91;;;-1.52;76.91
73338;BME280;61575;49.908;35.556;2022-11-15T05:34:32;100116.88;;;-1.46;76.85
73338;BME280;61575;49.908;35.556;2022-11-15T05:37:52;100107.84;;;-1.41;77.24
73338;BME280;61575;49.908;35.556;2022-11-15T05:41:13;100111.59;;;-1.27;77.50
73338;BME280;61575;49.908;35.556;2022-11-15T05:44:36;100104.81;;;-1.14;77.14
73338;BME280;61575;49.908;35.556;2022-11-15T05:47:57;100102.28;;;-0.99;77.40
73338;BME280;61575;49.908;35.556;2022-11-15T05:51:20;100098.81;;;-0.82;77.88
73338;BME280;61575;49.908;35.556;2022-11-15T05:54:42;100099.81;;;-0.67;77.94
73338;BME280;61575;49.908;35.556;2022-11-15T05:58:02;100098.41;;;-0.57;77.82
73338;BME280;61575;49.908;35.556;2022-11-15T06:01:24;100088.41;;;-0.50;78.02
73338;BME280;61575;49.908;35.556;2022-11-15T06:04:45;100095.16;;;-0.45;78.13
73338;BME280;61575;49.908;35.556;2022-11-15T06:08:06;100088.63;;;-0.38;77.92
73338;BME280;61575;49.908;35.556;2022-11-15T06:11:26;100088.22;;;-0.30;78.10
73338;BME280;61575;49.908;35.556;2022-11-15T06:14:47;100097.28;;;-0.18;77.69
73338;BME280;61575;49.908;35.556;2022-11-15T06:18:07;100089.72;;;-0.09;77.79
73338;BME280;61575;49.908;35.556;2022-11-15T06:21:27;100079.63;;;-0.01;77.92
73338;BME280;61575;49.908;35.556;2022-11-15T06:24:49;100088.88;;;0.07;77.89
73338;BME280;61575;49.908;35.556;2022-11-15T06:28:09;100082.09;;;0.18;77.46
73338;BME280;61575;49.908;35.556;2022-11-15T06:31:30;100078.34;;;0.38;77.57
73338;BME280;61575;49.908;35.556;2022-11-15T06:34:51;100076.31;;;0.59;77.32
73338;BME280;61575;49.908;35.556;2022-11-15T06:38:12;100071.53;;;0.65;76.95
73338;BME280;61575;49.908;35.556;2022-11-15T06:41:35;100069.56;;;0.69;76.96
73338;BME280;61575;49.908;35.556;2022-11-15T06:44:56;100089.56;;;0.89;76.63
73338;BME280;61575;49.908;35.556;2022-11-15T06:48:16;100091.22;;;1.06;76.26
73338;BME280;61575;49.908;35.556;2022-11-15T06:51:37;100077.84;;;1.09;75.71
73338;BME280;61575;49.908;35.556;2022-11-15T06:54:57;100072.38;;;1.12;75.87
73338;BME280;61575;49.908;35.556;2022-11-15T06:58:18;100059.72;;;1.03;75.84
73338;BME280;61575;49.908;35.556;2022-11-15T07:01:38;100054.72;;;0.98;75.85
73338;BME280;61575;49.908;35.556;2022-11-15T07:04:58;100052.06;;;0.98;75.91
73338;BME280;61575;49.908;35.556;2022-11-15T07:08:18;100048.81;;;1.09;75.93
73338;BME280;61575;49.908;35.556;2022-11-15T07:11:39;100042.78;;;1.21;75.99
73338;BME280;61575;49.908;35.556;2022-11-15T07:15:00;100036.03;;;1.45;75.73
73338;BME280;61575;49.908;35.556;2022-11-15T07:18:21;100041.16;;;1.77;74.71
73338;BME280;61575;49.908;35.556;2022-11-15T07:21:41;100051.03;;;2.16;74.54
73338;BME280;61575;49.908;35.556;2022-11-15T07:25:02;100047.47;;;2.58;73.60
73338;BME280;61575;49.908;35.556;2022-11-15T07:28:22;100044.81;;;2.85;72.27
73338;BME280;61575;49.908;35.556;2022-11-15T07:31:43;100033.75;;;3.18;71.93
73338;BME280;61575;49.908;35.556;2022-11-15T07:35:03;100034.84;;;3.41;70.82
73338;BME280;61575;49.908;35.556;2022-11-15T07:38:24;100027.44;;;3.71;70.04
73338;BME280;61575;49.908;35.556;2022-11-15T07:41:44;100032.38;;;4.01;69.62
73338;BME280;61575;49.908;35.556;2022-11-15T07:45:05;100023.53;;;4.26;68.74
73338;BME280;61575;49.908;35.556;2022-11-15T07:48:25;100019.19;;;4.49;67.99
73338;BME280;61575;49.908;35.556;2022-11-15T07:52:01;100014.56;;;4.87;67.32
73338;BME280;61575;49.908;35.556;2022-11-15T07:55:23;100017.44;;;5.19;66.30
73338;BME280;61575;49.908;35.556;2022-11-15T07:58:45;100009.72;;;5.39;65.45
73338;BME280;61575;49.908;35.556;2022-11-15T08:02:05;100008.19;;;5.59;64.82
73338;BME280;61575;49.908;35.556;2022-11-15T08:05:26;99997.31;;;5.84;64.32
73338;BME280;61575;49.908;35.556;2022-11-15T08:08:47;99997.31;;;5.84;63.35
73338;BME280;61575;49.908;35.556;2022-11-15T08:12:07;99984.03;;;5.84;63.28
73338;BME280;61575;49.908;35.556;2022-11-15T08:15:28;99979.41;;;5.86;62.80
73338;BME280;61575;49.908;35.556;2022-11-15T08:18:49;99974.59;;;5.80;62.62
73338;BME280;61575;49.908;35.556;2022-11-15T08:22:09;99969.50;;;5.66;62.65
73338;BME280;61575;49.908;35.556;2022-11-15T08:25:31;99972.28;;;5.75;62.67
73338;BME280;61575;49.908;35.556;2022-11-15T08:28:52;99963.72;;;5.72;62.43
73338;BME280;61575;49.908;35.556;2022-11-15T08:32:12;99961.16;;;5.59;62.79
73338;BME280;61575;49.908;35.556;2022-11-15T08:35:33;99958.25;;;5.51;63.09
73338;BME280;61575;49.908;35.556;2022-11-15T08:38:53;99961.66;;;5.53;63.50
73338;BME280;61575;49.908;35.556;2022-11-15T08:42:14;99969.88;;;5.50;63.63
73338;BME280;61575;49.908;35.556;2022-11-15T08:45:39;99959.47;;;5.58;63.94
73338;BME280;61575;49.908;35.556;2022-11-15T08:49:00;99952.47;;;5.57;63.65
73338;BME280;61575;49.908;35.556;2022-11-15T08:52:20;99955.38;;;5.54;63.90
73338;BME280;61575;49.908;35.556;2022-11-15T08:55:41;99950.88;;;5.54;64.00
73338;BME280;61575;49.908;35.556;2022-11-15T09:02:48;99933.47;;;5.62;63.66
73338;BME280;61575;49.908;35.556;2022-11-15T09:06:08;99930.69;;;5.63;63.68
73338;BME280;61575;49.908;35.556;2022-11-15T09:09:29;99925.97;;;5.67;63.47
73338;BME280;61575;49.908;35.556;2022-11-15T09:12:51;99904.09;;;5.63;63.69
73338;BME280;61575;49.908;35.556;2022-11-15T09:16:11;99907.25;;;5.57;63.51
73338;BME280;61575;49.908;35.556;2022-11-15T09:19:32;99905.19;;;5.61;64.22
73338;BME280;61575;49.908;35.556;2022-11-15T09:22:53;99915.59;;;5.64;64.55
73338;BME280;61575;49.908;35.556;2022-11-15T09:26:13;99929.63;;;5.54;64.36
73338;BME280;61575;49.908;35.556;2022-11-15T09:29:34;99924.78;;;5.60;64.62
73338;BME280;61575;49.908;35.556;2022-11-15T09:32:54;99903.25;;;5.63;64.25
73338;BME280;61575;49.908;35.556;2022-11-15T09:36:15;99882.94;;;5.62;64.38
73338;BME280;61575;49.908;35.556;2022-11-15T09:39:36;99870.38;;;5.64;64.31
73338;BME280;61575;49.908;35.556;2022-11-15T09:50:41;99852.63;;;5.53;64.52
73338;BME280;61575;49.908;35.556;2022-11-15T09:53:49;99842.47;;;5.58;64.93
73338;BME280;61575;49.908;35.556;2022-11-15T09:57:33;99859.00;;;5.62;64.81
73338;BME280;61575;49.908;35.556;2022-11-15T10:00:44;99853.81;;;5.60;65.16
73338;BME280;61575;49.908;35.556;2022-11-15T10:03:49;99850.56;;;5.57;64.45
73338;BME280;61575;49.908;35.556;2022-11-15T10:07:19;99858.78;;;5.65;64.42
73338;BME280;61575;49.908;35.556;2022-11-15T10:13:28;99849.34;;;5.61;65.02
73338;BME280;61575;49.908;35.556;2022-11-15T10:23:12;99834.72;;;5.55;64.76
73338;BME280;61575;49.908;35.556;2022-11-15T10:26:16;99826.88;;;5.53;65.15
73338;BME280;61575;49.908;35.556;2022-11-15T10:29:22;99814.31;;;5.56;64.89
73338;BME280;61575;49.908;35.556;2022-11-15T10:32:28;99820.94;;;5.61;65.44
73338;BME280;61575;49.908;35.556;2022-11-15T10:35:30;99809.94;;;5.54;65.02
73338;BME280;61575;49.908;35.556;2022-11-15T10:38:32;99809.69;;;5.58;65.17
73338;BME280;61575;49.908;35.556;2022-11-15T10:41:37;99799.78;;;5.60;65.13
73338;BME280;61575;49.908;35.556;2022-11-15T10:44:43;99799.28;;;5.66;65.25
73338;BME280;61575;49.908;35.556;2022-11-15T10:47:45;99792.03;;;5.68;64.95
73338;BME280;61575;49.908;35.556;2022-11-15T10:50:49;99792.88;;;5.68;65.07
73338;BME280;61575;49.908;35.556;2022-11-15T10:53:52;99798.19;;;5.68;64.71
73338;BME280;61575;49.908;35.556;2022-11-15T10:56:57;99785.28;;;5.64;64.65
73338;BME280;61575;49.908;35.556;2022-11-15T11:03:34;99775.38;;;5.54;64.76
73338;BME280;61575;49.908;35.556;2022-11-15T11:06:49;99763.31;;;5.50;64.82
73338;BME280;61575;49.908;35.556;2022-11-15T11:13:35;99763.53;;;5.59;64.74
73338;BME280;61575;49.908;35.556;2022-11-15T11:20:09;99777.81;;;5.46;64.63
73338;BME280;61575;49.908;35.556;2022-11-15T11:23:36;99784.81;;;5.47;64.69
73338;BME280;61575;49.908;35.556;2022-11-15T11:30:33;99786.25;;;5.51;64.44
73338;BME280;61575;49.908;35.556;2022-11-15T11:33:33;99780.69;;;5.54;64.49
73338;BME280;61575;49.908;35.556;2022-11-15T11:37:14;99768.13;;;5.57;64.24
73338;BME280;61575;49.908;35.556;2022-11-15T11:40:39;99751.53;;;5.64;64.56
73338;BME280;61575;49.908;35.556;2022-11-15T11:47:03;99738.47;;;5.72;64.57
73338;BME280;61575;49.908;35.556;2022-11-15T11:50:34;99744.50;;;5.74;64.35
73338;BME280;61575;49.908;35.556;2022-11-15T11:53:58;99720.16;;;5.79;65.08
73338;BME280;61575;49.908;35.556;2022-11-15T11:57:03;99727.19;;;5.80;64.65
73338;BME280;61575;49.908;35.556;2022-11-15T12:00:18;99733.22;;;5.82;64.55
73338;BME280;61575;49.908;35.556;2022-11-15T12:09:59;99699.16;;;5.76;64.29
73338;BME280;61575;49.908;35.556;2022-11-15T12:13:13;99689.88;;;5.70;64.48
73338;BME280;61575;49.908;35.556;2022-11-15T12:16:23;99692.31;;;5.62;64.62
73338;BME280;61575;49.908;35.556;2022-11-15T12:19:29;99680.13;;;5.60;64.91
73338;BME280;61575;49.908;35.556;2022-11-15T12:26:05;99665.59;;;5.64;65.33
73338;BME280;61575;49.908;35.556;2022-11-15T12:29:16;99662.94;;;5.64;65.06
73338;BME280;61575;49.908;35.556;2022-11-15T12:32:31;99668.97;;;5.66;65.06
73338;BME280;61575;49.908;35.556;2022-11-15T12:35:43;99664.94;;;5.71;65.27
73338;BME280;61575;49.908;35.556;2022-11-15T12:39:00;99664.69;;;5.74;64.94
73338;BME280;61575;49.908;35.556;2022-11-15T12:45:28;99650.75;;;5.82;65.10
73338;BME280;61575;49.908;35.556;2022-11-15T12:54:50;99651.16;;;5.98;65.01
73338;BME280;61575;49.908;35.556;2022-11-15T12:57:52;99631.03;;;6.05;65.21
73338;BME280;61575;49.908;35.556;2022-11-15T13:00:54;99635.34;;;5.97;64.82
73338;BME280;61575;49.908;35.556;2022-11-15T13:10:37;99603.84;;;5.81;64.86
73338;BME280;61575;49.908;35.556;2022-11-15T13:13:44;99610.97;;;5.80;64.87
73338;BME280;61575;49.908;35.556;2022-11-15T13:16:46;99608.56;;;5.77;65.17
73338;BME280;61575;49.908;35.556;2022-11-15T13:23:10;99588.91;;;5.69;65.38
73338;BME280;61575;49.908;35.556;2022-11-15T13:26:15;99583.66;;;5.58;65.13
73338;BME280;61575;49.908;35.556;2022-11-15T13:29:20;99579.00;;;5.50;65.61
73338;BME280;61575;49.908;35.556;2022-11-15T13:32:22;99578.41;;;5.46;66.03
73338;BME280;61575;49.908;35.556;2022-11-15T13:35:26;99572.50;;;5.43;66.16
73338;BME280;61575;49.908;35.556;2022-11-15T13:38:37;99564.78;;;5.40;66.23
73338;BME280;61575;49.908;35.556;2022-11-15T13:41:50;99560.13;;;5.32;65.94
73338;BME280;61575;49.908;35.556;2022-11-15T13:44:58;99556.28;;;5.25;66.08
73338;BME280;61575;49.908;35.556;2022-11-15T13:48:02;99543.81;;;5.16;66.36
73338;BME280;61575;49.908;35.556;2022-11-15T13:51:20;99555.19;;;5.07;66.78
73338;BME280;61575;49.908;35.556;2022-11-15T13:54:45;99546.63;;;5.03;66.71
73338;BME280;61575;49.908;35.556;2022-11-15T13:57:52;99542.94;;;4.95;67.19
73338;BME280;61575;49.908;35.556;2022-11-15T14:01:00;99531.59;;;4.93;67.39
73338;BME280;61575;49.908;35.556;2022-11-15T14:04:03;99537.16;;;4.90;67.32
73338;BME280;61575;49.908;35.556;2022-11-15T14:07:05;99542.47;;;4.90;67.62
73338;BME280;61575;49.908;35.556;2022-11-15T14:10:36;99525.69;;;4.89;68.12
73338;BME280;61575;49.908;35.556;2022-11-15T14:13:39;99525.56;;;4.91;67.78
73338;BME280;61575;49.908;35.556;2022-11-15T14:16:42;99524.59;;;4.92;68.09
73338;BME280;61575;49.908;35.556;2022-11-15T14:19:44;99520.84;;;4.94;68.38
73338;BME280;61575;49.908;35.556;2022-11-15T14:22:57;99509.50;;;4.92;68.36
73338;BME280;61575;49.908;35.556;2022-11-15T14:25:59;99500.69;;;4.92;68.82
73338;BME280;61575;49.908;35.556;2022-11-15T14:29:24;99498.03;;;4.92;68.50
73338;BME280;61575;49.908;35.556;2022-11-15T14:32:40;99486.69;;;4.90;68.90
73338;BME280;61575;49.908;35.556;2022-11-15T14:35:44;99497.31;;;4.90;68.92
73338;BME280;61575;49.908;35.556;2022-11-15T14:38:46;99506.72;;;4.94;68.75
73338;BME280;61575;49.908;35.556;2022-11-15T14:41:48;99494.28;;;4.94;69.08
73338;BME280;61575;49.908;35.556;2022-11-15T14:44:51;99474.84;;;4.94;68.84
73338;BME280;61575;49.908;35.556;2022-11-15T14:47:53;99472.88;;;4.96;68.96
73338;BME280;61575;49.908;35.556;2022-11-15T14:50:56;99474.56;;;4.97;69.08
73338;BME280;61575;49.908;35.556;2022-11-15T14:53:58;99471.06;;;4.96;69.00
73338;BME280;61575;49.908;35.556;2022-11-15T14:57:00;99466.88;;;4.94;69.20
73338;BME280;61575;49.908;35.556;2022-11-15T15:00:02;99459.72;;;4.94;69.28
73338;BME280;61575;49.908;35.556;2022-11-15T15:03:14;99445.75;;;4.92;69.21
73338;BME280;61575;49.908;35.556;2022-11-15T15:06:16;99441.66;;;4.88;69.40
73338;BME280;61575;49.908;35.556;2022-11-15T15:09:19;99450.13;;;4.82;69.66
73338;BME280;61575;49.908;35.556;2022-11-15T15:12:22;99437.69;;;4.82;69.25
73338;BME280;61575;49.908;35.556;2022-11-15T15:15:27;99431.28;;;4.85;69.67
73338;BME280;61575;49.908;35.556;2022-11-15T15:18:31;99422.72;;;4.81;69.50
73338;BME280;61575;49.908;35.556;2022-11-15T15:21:34;99421.91;;;4.81;69.36
73338;BME280;61575;49.908;35.556;2022-11-15T15:24:38;99418.66;;;4.77;69.62
73338;BME280;61575;49.908;35.556;2022-11-15T15:27:40;99412.38;;;4.78;69.84
73338;BME280;61575;49.908;35.556;2022-11-15T15:30:41;99403.69;;;4.76;69.88
73338;BME280;61575;49.908;35.556;2022-11-15T15:33:44;99400.19;;;4.76;70.08
73338;BME280;61575;49.908;35.556;2022-11-15T15:36:46;99394.88;;;4.76;70.00
73338;BME280;61575;49.908;35.556;2022-11-15T15:39:48;99386.34;;;4.72;70.24
73338;BME280;61575;49.908;35.556;2022-11-15T15:42:51;99386.00;;;4.66;70.86
73338;BME280;61575;49.908;35.556;2022-11-15T15:45:53;99382.97;;;4.70;70.44
73338;BME280;61575;49.908;35.556;2022-11-15T15:48:55;99376.56;;;4.73;70.58
73338;BME280;61575;49.908;35.556;2022-11-15T15:51:57;99373.78;;;4.74;70.60
73338;BME280;61575;49.908;35.556;2022-11-15T15:54:59;99362.31;;;4.74;70.67
73338;BME280;61575;49.908;35.556;2022-11-15T15:58:01;99355.56;;;4.70;70.84
73338;BME280;61575;49.908;35.556;2022-11-15T16:01:03;99362.94;;;4.66;71.35
73338;BME280;61575;49.908;35.556;2022-11-15T16:04:05;99352.31;;;4.66;71.34
73338;BME280;61575;49.908;35.556;2022-11-15T16:07:15;99352.72;;;4.62;72.34
73338;BME280;61575;49.908;35.556;2022-11-15T16:13:22;99351.75;;;4.63;71.87
73338;BME280;61575;49.908;35.556;2022-11-15T16:16:24;99343.66;;;4.64;71.94
73338;BME280;61575;49.908;35.556;2022-11-15T16:19:26;99334.25;;;4.60;72.32
73338;BME280;61575;49.908;35.556;2022-11-15T16:22:28;99332.06;;;4.65;73.04
73338;BME280;61575;49.908;35.556;2022-11-15T16:25:36;99331.09;;;4.66;72.73
73338;BME280;61575;49.908;35.556;2022-11-15T16:28:39;99330.00;;;4.69;72.73
73338;BME280;61575;49.908;35.556;2022-11-15T16:31:41;99320.22;;;4.69;72.52
73338;BME280;61575;49.908;35.556;2022-11-15T16:34:42;99323.56;;;4.71;72.92
73338;BME280;61575;49.908;35.556;2022-11-15T16:37:49;99326.94;;;4.73;73.20
73338;BME280;61575;49.908;35.556;2022-11-15T16:40:51;99328.38;;;4.77;73.00
73338;BME280;61575;49.908;35.556;2022-11-15T16:43:53;99329.06;;;4.79;73.25
73338;BME280;61575;49.908;35.556;2022-11-15T16:46:55;99313.00;;;4.81;73.36
73338;BME280;61575;49.908;35.556;2022-11-15T16:49:57;99304.06;;;4.82;73.51
73338;BME280;61575;49.908;35.556;2022-11-15T16:52:59;99297.91;;;4.81;73.47
73338;BME280;61575;49.908;35.556;2022-11-15T16:56:02;99284.38;;;4.84;73.58
73338;BME280;61575;49.908;35.556;2022-11-15T16:59:04;99280.59;;;4.87;73.37
73338;BME280;61575;49.908;35.556;2022-11-15T17:02:15;99296.16;;;4.92;73.59
73338;BME280;61575;49.908;35.556;2022-11-15T17:05:20;99276.59;;;4.93;73.20
73338;BME280;61575;49.908;35.556;2022-11-15T17:08:21;99267.63;;;4.94;73.49
73338;BME280;61575;49.908;35.556;2022-11-15T17:11:24;99274.78;;;4.93;73.62
73338;BME280;61575;49.908;35.556;2022-11-15T17:14:26;99274.78;;;4.93;73.60
73338;BME280;61575;49.908;35.556;2022-11-15T17:17:28;99269.19;;;4.96;73.71
73338;BME280;61575;49.908;35.556;2022-11-15T17:20:30;99270.75;;;4.99;73.25
73338;BME280;61575;49.908;35.556;2022-11-15T17:23:34;99262.63;;;5.00;73.46
73338;BME280;61575;49.908;35.556;2022-11-15T17:26:36;99258.44;;;4.98;73.48
73338;BME280;61575;49.908;35.556;2022-11-15T17:29:41;99255.78;;;4.98;73.42
73338;BME280;61575;49.908;35.556;2022-11-15T17:32:43;99257.19;;;5.02;73.12
73338;BME280;61575;49.908;35.556;2022-11-15T17:35:45;99255.38;;;5.02;73.22
73338;BME280;61575;49.908;35.556;2022-11-15T17:38:47;99258.88;;;5.03;73.23
73338;BME280;61575;49.908;35.556;2022-11-15T17:42:01;99252.84;;;5.01;73.09
73338;BME280;61575;49.908;35.556;2022-11-15T17:45:04;99246.28;;;5.05;73.04
73338;BME280;61575;49.908;35.556;2022-11-15T17:48:12;99237.34;;;5.06;72.83
73338;BME280;61575;49.908;35.556;2022-11-15T17:51:18;99247.84;;;5.07;72.97
73338;BME280;61575;49.908;35.556;2022-11-15T17:54:23;99233.72;;;5.07;73.18
73338;BME280;61575;49.908;35.556;2022-11-15T17:57:27;99222.38;;;5.05;72.86
73338;BME280;61575;49.908;35.556;2022-11-15T18:00:38;99215.53;;;5.02;73.14
73338;BME280;61575;49.908;35.556;2022-11-15T18:03:42;99209.22;;;5.03;73.41
73338;BME280;61575;49.908;35.556;2022-11-15T18:06:45;99216.38;;;5.03;73.21
73338;BME280;61575;49.908;35.556;2022-11-15T18:09:47;99208.41;;;5.03;73.25
73338;BME280;61575;49.908;35.556;2022-11-15T18:12:53;99201.84;;;5.07;73.18
73338;BME280;61575;49.908;35.556;2022-11-15T18:15:56;99203.50;;;5.08;73.39
73338;BME280;61575;49.908;35.556;2022-11-15T18:19:04;99199.19;;;5.07;73.83
73338;BME280;61575;49.908;35.556;2022-11-15T18:22:14;99200.16;;;5.06;73.52
73338;BME280;61575;49.908;35.556;2022-11-15T18:25:18;99201.84;;;5.07;73.70
73338;BME280;61575;49.908;35.556;2022-11-15T18:28:20;99200.84;;;5.08;73.71
73338;BME280;61575;49.908;35.556;2022-11-15T18:31:29;99201.84;;;5.07;74.00
73338;BME280;61575;49.908;35.556;2022-11-15T18:34:32;99199.19;;;5.07;74.10